Time;durP1;ratioP1;P1;durP2;ratioP2;P2;SDS_P1;SDS_P2;PMS_P1;PMS_P2;Temp;Humidity;BMP_temperature;BMP_pressure;BME280_temperature;BME280_humidity;BME280_pressure;Samples;Min_cycle;Max_cycle;Signal;HPM_P1;HPM_P2
2023/03/25 00:00:38;;;;;;;24.55;13.88;;;;;;;;;;5065710;28;20045;-64
2023/03/25 00:04:16;;;;;;;26.00;14.48;;;;;;;;;;5064131;28;20037;-64
2023/03/25 00:07:56;;;;;;;17.77;12.90;;;;;;;;;;5063358;28;20051;-65
2023/03/25 00:11:36;;;;;;;24.75;15.20;;;;;;;;;;5060910;28;20118;-64
2023/03/25 00:15:16;;;;;;;24.58;14.00;;;;;;;;;;5066137;28;20161;-64
2023/03/25 00:18:58;;;;;;;23.88;14.20;;;;;;;;;;5056407;28;20127;-63
2023/03/25 00:22:39;;;;;;;23.42;15.10;;;;;;;;;;5057006;28;20109;-67
2023/03/25 00:26:17;;;;;;;30.05;15.35;;;;;;;;;;5060932;28;20048;-63
2023/03/25 00:29:57;;;;;;;20.48;13.25;;;;;;;;;;5061580;28;20389;-64
2023/03/25 00:33:40;;;;;;;22.67;13.60;;;;;;;;;;5066585;28;20083;-64
2023/03/25 00:37:20;;;;;;;24.50;13.70;;;;;;;;;;5062431;28;20600;-65
2023/03/25 00:40:58;;;;;;;23.30;15.68;;;;;;;;;;5067569;28;20044;-63
2023/03/25 00:44:39;;;;;;;27.45;14.38;;;;;;;;;;5065532;28;20043;-63
2023/03/25 00:48:19;;;;;;;25.10;14.15;;;;;;;;;;5068102;28;20083;-63
2023/03/25 00:52:00;;;;;;;22.45;13.80;;;;;;;;;;5064786;28;20076;-63
2023/03/25 00:55:04;;;;;;;28.08;14.57;;;;;;;;;;5065659;28;20683;-62
2023/03/25 00:57:31;;;;;;;28.25;14.80;;;;;;;;;;5063531;28;20056;-63
2023/03/25 01:00:37;;;;;;;25.67;14.35;;;;;;;;;;5073049;28;20631;-63
2023/03/25 01:04:18;;;;;;;26.10;14.93;;;;;;;;;;5066969;28;20460;-62
2023/03/25 01:07:58;;;;;;;30.40;15.85;;;;;;;;;;5059749;28;20044;-63
2023/03/25 01:11:38;;;;;;;29.48;15.98;;;;;;;;;;5060947;28;20408;-62
2023/03/25 01:15:18;;;;;;;23.13;14.90;;;;;;;;;;5059434;28;20037;-64
2023/03/25 01:18:59;;;;;;;26.38;14.15;;;;;;;;;;5060347;28;20562;-66
2023/03/25 01:22:39;;;;;;;29.08;17.13;;;;;;;;;;5063925;28;20096;-63
2023/03/25 01:26:21;;;;;;;21.73;12.85;;;;;;;;;;5062382;28;20048;-64
2023/03/25 01:30:01;;;;;;;19.15;13.07;;;;;;;;;;5064865;28;20052;-62
2023/03/25 01:33:42;;;;;;;27.75;14.38;;;;;;;;;;5066790;28;20284;-65
2023/03/25 01:37:24;;;;;;;22.65;12.68;;;;;;;;;;5062696;28;20052;-63
2023/03/25 01:41:03;;;;;;;17.55;11.07;;;;;;;;;;5059216;28;20060;-63
2023/03/25 01:44:27;;;;;;;19.83;11.35;;;;;;;;;;5065673;28;20586;-64
2023/03/25 01:48:09;;;;;;;24.98;15.65;;;;;;;;;;5064149;28;20174;-64
2023/03/25 01:51:49;;;;;;;27.35;15.13;;;;;;;;;;5059488;28;20109;-65
2023/03/25 01:54:54;;;;;;;22.17;15.35;;;;;;;;;;5062453;28;20051;-61
2023/03/25 01:57:23;;;;;;;26.50;15.65;;;;;;;;;;5057828;28;20044;-62
2023/03/25 01:59:52;;;;;;;26.30;16.40;;;;;;;;;;5064308;28;20124;-64
2023/03/25 02:02:18;;;;;;;22.90;15.15;;;;;;;;;;5062013;28;20041;-62
2023/03/25 02:05:02;;;;;;;26.20;15.50;;;;;;;;;;5060680;28;20044;-63
2023/03/25 02:07:34;;;;;;;20.73;15.70;;;;;;;;;;5062752;28;20078;-63
2023/03/25 02:10:06;;;;;;;20.48;13.32;;;;;;;;;;5062403;28;20162;-64
2023/03/25 02:12:32;;;;;;;27.60;14.48;;;;;;;;;;5062505;28;20060;-63
2023/03/25 02:15:01;;;;;;;21.00;12.15;;;;;;;;;;5057795;28;20087;-61
2023/03/25 02:18:21;;;;;;;16.08;9.32;;;;;;;;;;5063523;28;20067;-64
2023/03/25 02:20:56;;;;;;;18.98;11.77;;;;;;;;;;5002564;28;20153;-64
2023/03/25 02:23:41;;;;;;;15.07;10.77;;;;;;;;;;5005216;28;20111;-62
2023/03/25 02:26:28;;;;;;;15.48;10.45;;;;;;;;;;5006908;28;20038;-63
2023/03/25 02:29:04;;;;;;;17.83;9.30;;;;;;;;;;4998739;28;20495;-62
2023/03/25 02:31:56;;;;;;;15.45;8.73;;;;;;;;;;4996743;28;20064;-62
2023/03/25 02:35:03;;;;;;;15.13;8.38;;;;;;;;;;5002659;28;20490;-62
2023/03/25 02:37:57;;;;;;;17.33;8.70;;;;;;;;;;5003186;28;20260;-63
2023/03/25 02:40:38;;;;;;;17.75;8.98;;;;;;;;;;5002795;28;20539;-62
2023/03/25 02:43:19;;;;;;;25.20;8.57;;;;;;;;;;5000560;28;20456;-63
2023/03/25 02:45:51;;;;;;;8.65;5.10;;;;;;;;;;4999205;28;20046;-62
2023/03/25 02:48:26;;;;;;;9.93;4.63;;;;;;;;;;5000250;28;20444;-62
2023/03/25 02:50:56;;;;;;;9.00;4.68;;;;;;;;;;4985238;28;20385;-63
2023/03/25 02:53:32;;;;;;;14.98;5.13;;;;;;;;;;5002459;28;20448;-62
2023/03/25 02:56:02;;;;;;;11.40;5.28;;;;;;;;;;5061132;28;20048;-61
2023/03/25 02:58:30;;;;;;;8.02;4.57;;;;;;;;;;5062269;28;20469;-63
2023/03/25 03:00:58;;;;;;;9.50;5.03;;;;;;;;;;5061323;28;20037;-63
2023/03/25 03:03:27;;;;;;;10.15;4.93;;;;;;;;;;5060532;28;20569;-62
2023/03/25 03:05:59;;;;;;;11.82;4.60;;;;;;;;;;5060221;28;20052;-62
2023/03/25 03:09:00;;;;;;;14.07;5.35;;;;;;;;;;5065095;28;20074;-65
2023/03/25 03:11:44;;;;;;;9.15;3.95;;;;;;;;;;5036897;28;20100;-63
2023/03/25 03:14:36;;;;;;;6.28;3.30;;;;;;;;;;5058892;28;20504;-64
2023/03/25 03:17:17;;;;;;;10.43;3.03;;;;;;;;;;5056977;28;20079;-64
2023/03/25 03:20:12;;;;;;;6.47;2.50;;;;;;;;;;5062999;28;20131;-63
2023/03/25 03:22:52;;;;;;;5.07;2.65;;;;;;;;;;5064877;28;20076;-62
2023/03/25 03:25:27;;;;;;;5.40;2.38;;;;;;;;;;5066337;28;20544;-64
2023/03/25 03:28:06;;;;;;;6.47;2.63;;;;;;;;;;5062187;28;20394;-61
2023/03/25 03:30:54;;;;;;;9.20;2.78;;;;;;;;;;5063355;28;20047;-62
2023/03/25 03:33:31;;;;;;;5.03;2.30;;;;;;;;;;5067119;28;20106;-62
2023/03/25 03:36:09;;;;;;;7.40;2.22;;;;;;;;;;5061781;28;20090;-63
2023/03/25 03:38:46;;;;;;;6.00;2.00;;;;;;;;;;5066456;28;20090;-64
2023/03/25 03:41:17;;;;;;;7.47;2.10;;;;;;;;;;5063654;28;20064;-63
2023/03/25 03:44:05;;;;;;;7.40;2.25;;;;;;;;;;5062624;28;20503;-64
2023/03/25 03:46:37;;;;;;;6.93;1.98;;;;;;;;;;5061758;28;20053;-64
2023/03/25 03:49:09;;;;;;;5.75;1.67;;;;;;;;;;5060980;28;20063;-63
2023/03/25 03:51:45;;;;;;;10.25;1.92;;;;;;;;;;5060986;28;20057;-62
2023/03/25 03:54:21;;;;;;;4.30;1.70;;;;;;;;;;5064615;28;20048;-65
2023/03/25 03:57:11;;;;;;;5.32;2.00;;;;;;;;;;5064518;28;20043;-63
2023/03/25 03:59:56;;;;;;;3.50;1.60;;;;;;;;;;5061691;28;20063;-65
2023/03/25 04:02:41;;;;;;;4.63;1.52;;;;;;;;;;5067862;28;20079;-64
2023/03/25 04:05:13;;;;;;;2.50;1.50;;;;;;;;;;5060356;28;20123;-63
2023/03/25 04:08:10;;;;;;;4.20;1.60;;;;;;;;;;5056841;28;20052;-63
2023/03/25 04:10:57;;;;;;;3.92;1.60;;;;;;;;;;5064257;28;20052;-63
2023/03/25 04:13:29;;;;;;;5.57;1.35;;;;;;;;;;5065285;28;20078;-62
2023/03/25 04:15:59;;;;;;;4.70;1.60;;;;;;;;;;5063908;28;20047;-63
2023/03/25 04:18:27;;;;;;;3.90;1.60;;;;;;;;;;5066712;28;20040;-63
2023/03/25 04:20:57;;;;;;;13.77;1.83;;;;;;;;;;5069945;28;20064;-63
2023/03/25 04:23:23;;;;;;;8.90;1.80;;;;;;;;;;5059228;28;20052;-63
2023/03/25 04:25:51;;;;;;;4.90;1.60;;;;;;;;;;5060997;28;20105;-64
2023/03/25 04:28:18;;;;;;;5.15;1.50;;;;;;;;;;5057258;28;20142;-62
2023/03/25 04:30:45;;;;;;;3.90;1.50;;;;;;;;;;5064814;28;20057;-63
2023/03/25 04:33:11;;;;;;;2.75;1.60;;;;;;;;;;5062338;28;20049;-63
2023/03/25 04:35:39;;;;;;;4.30;1.88;;;;;;;;;;5069517;28;20069;-63
2023/03/25 04:38:05;;;;;;;2.85;1.40;;;;;;;;;;5068093;28;20056;-64
2023/03/25 04:40:32;;;;;;;3.97;1.80;;;;;;;;;;5062365;28;20144;-62
2023/03/25 04:42:58;;;;;;;5.50;1.70;;;;;;;;;;5066213;28;20193;-67
2023/03/25 04:45:25;;;;;;;5.50;1.65;;;;;;;;;;5066172;28;20049;-64
2023/03/25 04:47:52;;;;;;;3.92;1.55;;;;;;;;;;5067919;28;20049;-63
2023/03/25 04:50:23;;;;;;;3.17;1.65;;;;;;;;;;5071081;28;20122;-63
2023/03/25 04:52:50;;;;;;;3.17;1.42;;;;;;;;;;5060861;28;20048;-63
2023/03/25 04:55:18;;;;;;;3.95;1.90;;;;;;;;;;5065277;28;20485;-69
2023/03/25 04:57:51;;;;;;;3.50;1.52;;;;;;;;;;5063547;28;20051;-64
2023/03/25 05:00:21;;;;;;;4.50;1.55;;;;;;;;;;5063873;28;20049;-63
2023/03/25 05:02:49;;;;;;;3.08;1.50;;;;;;;;;;5064263;28;20547;-64
2023/03/25 05:05:17;;;;;;;4.60;1.52;;;;;;;;;;5070537;28;20056;-64
2023/03/25 05:07:50;;;;;;;5.32;1.77;;;;;;;;;;5060409;28;20049;-63
2023/03/25 05:10:18;;;;;;;5.47;2.20;;;;;;;;;;5067574;28;20044;-62
2023/03/25 05:12:44;;;;;;;4.85;2.00;;;;;;;;;;5061361;28;20845;-62
2023/03/25 05:15:11;;;;;;;5.57;1.83;;;;;;;;;;5066117;28;20041;-61
2023/03/25 05:17:39;;;;;;;5.38;1.80;;;;;;;;;;5059919;28;20068;-62
2023/03/25 05:20:09;;;;;;;2.67;1.55;;;;;;;;;;5069669;28;20063;-63
2023/03/25 05:22:37;;;;;;;3.58;1.45;;;;;;;;;;5059998;28;20118;-62
2023/03/25 05:25:06;;;;;;;3.08;1.67;;;;;;;;;;5061557;28;20072;-63
2023/03/25 05:27:33;;;;;;;3.55;1.38;;;;;;;;;;5072609;28;20072;-68
2023/03/25 05:29:59;;;;;;;3.78;1.83;;;;;;;;;;5065159;28;20664;-64
2023/03/25 05:32:33;;;;;;;2.75;1.30;;;;;;;;;;5059063;28;20057;-62
2023/03/25 05:35:01;;;;;;;7.50;2.05;;;;;;;;;;5080743;28;20048;-63
2023/03/25 05:37:28;;;;;;;4.22;1.90;;;;;;;;;;5064446;28;20063;-64
2023/03/25 05:39:54;;;;;;;8.25;1.70;;;;;;;;;;5059941;28;20062;-63
2023/03/25 05:42:23;;;;;;;8.70;2.30;;;;;;;;;;5059342;28;20436;-66
2023/03/25 05:44:50;;;;;;;7.78;2.00;;;;;;;;;;5064112;28;20070;-64
2023/03/25 05:47:20;;;;;;;3.55;1.90;;;;;;;;;;5077525;28;20131;-63
2023/03/25 05:49:51;;;;;;;5.88;1.92;;;;;;;;;;5063251;28;20045;-63
2023/03/25 05:52:19;;;;;;;5.40;1.95;;;;;;;;;;5059216;28;20049;-62
2023/03/25 05:54:50;;;;;;;3.25;2.22;;;;;;;;;;5066339;28;20075;-63
2023/03/25 05:57:16;;;;;;;12.52;2.33;;;;;;;;;;5065759;28;20048;-62
2023/03/25 05:59:46;;;;;;;3.20;1.73;;;;;;;;;;5068100;28;20082;-63
2023/03/25 06:02:16;;;;;;;2.67;2.05;;;;;;;;;;5060775;28;20090;-66
2023/03/25 06:04:43;;;;;;;4.05;1.80;;;;;;;;;;5061957;28;20056;-63
2023/03/25 06:07:18;;;;;;;2.90;1.60;;;;;;;;;;5059790;28;20048;-64
2023/03/25 06:09:53;;;;;;;2.33;1.48;;;;;;;;;;5057602;28;20037;-64
2023/03/25 06:12:21;;;;;;;6.65;1.10;;;;;;;;;;5054698;28;20052;-63
2023/03/25 06:14:53;;;;;;;3.67;1.50;;;;;;;;;;5066926;28;20255;-63
2023/03/25 06:17:23;;;;;;;6.65;1.73;;;;;;;;;;5069828;28;20049;-66
2023/03/25 06:19:50;;;;;;;5.30;1.75;;;;;;;;;;5059534;28;20088;-66
2023/03/25 06:22:19;;;;;;;11.00;1.80;;;;;;;;;;5058652;28;20058;-61
2023/03/25 06:24:47;;;;;;;6.60;1.88;;;;;;;;;;5066160;28;20044;-68
2023/03/25 06:27:16;;;;;;;4.63;1.52;;;;;;;;;;5061465;28;20079;-63
2023/03/25 06:29:44;;;;;;;3.33;1.50;;;;;;;;;;5061395;28;20075;-68
2023/03/25 06:32:13;;;;;;;2.85;1.60;;;;;;;;;;5061498;28;20143;-63
2023/03/25 06:34:41;;;;;;;3.97;1.75;;;;;;;;;;5058505;28;20044;-65
2023/03/25 06:37:08;;;;;;;7.88;1.40;;;;;;;;;;5060152;28;20071;-63
2023/03/25 06:39:38;;;;;;;4.68;1.30;;;;;;;;;;5063892;28;20048;-63
2023/03/25 06:42:06;;;;;;;2.72;1.58;;;;;;;;;;5066586;28;20075;-64
2023/03/25 06:44:39;;;;;;;6.35;1.60;;;;;;;;;;5063751;28;20287;-62
2023/03/25 06:47:06;;;;;;;6.65;1.70;;;;;;;;;;5062845;28;20053;-66
2023/03/25 06:49:33;;;;;;;6.00;1.92;;;;;;;;;;5066226;28;20044;-65
2023/03/25 06:51:58;;;;;;;3.70;2.20;;;;;;;;;;5065937;28;20095;-64
2023/03/25 06:54:24;;;;;;;8.88;2.80;;;;;;;;;;5073037;28;20392;-62
2023/03/25 06:56:50;;;;;;;5.40;3.30;;;;;;;;;;5064300;28;20049;-63
2023/03/25 06:59:17;;;;;;;8.65;4.38;;;;;;;;;;5062067;28;20053;-65
2023/03/25 07:01:42;;;;;;;8.95;4.60;;;;;;;;;;5064659;28;20045;-63
2023/03/25 07:04:08;;;;;;;10.80;4.68;;;;;;;;;;5051481;28;20884;-64
2023/03/25 07:06:36;;;;;;;8.85;4.95;;;;;;;;;;5054209;28;20072;-63
2023/03/25 07:09:02;;;;;;;15.68;6.63;;;;;;;;;;5055203;28;20643;-62
2023/03/25 07:11:29;;;;;;;10.13;6.43;;;;;;;;;;5053375;28;20390;-63
2023/03/25 07:14:01;;;;;;;11.07;6.20;;;;;;;;;;5050611;28;20044;-66
2023/03/25 07:16:27;;;;;;;10.20;6.30;;;;;;;;;;5056634;28;20432;-63
2023/03/25 07:18:56;;;;;;;16.38;7.00;;;;;;;;;;5057635;28;20130;-63
2023/03/25 07:21:23;;;;;;;14.20;7.15;;;;;;;;;;5052179;28;20329;-64
2023/03/25 07:23:51;;;;;;;19.75;7.18;;;;;;;;;;5052612;28;20081;-64
2023/03/25 07:26:17;;;;;;;17.88;7.35;;;;;;;;;;5051796;28;20063;-65
2023/03/25 07:28:46;;;;;;;18.40;7.60;;;;;;;;;;5041553;28;20056;-65
2023/03/25 07:31:14;;;;;;;19.77;8.00;;;;;;;;;;5055124;28;20060;-63
2023/03/25 07:33:40;;;;;;;22.27;7.57;;;;;;;;;;5050981;28;20127;-65
2023/03/25 07:36:10;;;;;;;18.38;6.68;;;;;;;;;;5051186;28;20048;-65
2023/03/25 07:38:36;;;;;;;15.85;6.95;;;;;;;;;;5056420;28;20080;-66
2023/03/25 07:41:10;;;;;;;17.98;7.63;;;;;;;;;;5053410;28;20143;-64
2023/03/25 07:43:39;;;;;;;22.35;7.88;;;;;;;;;;5056558;28;20060;-65
2023/03/25 07:46:05;;;;;;;18.67;7.60;;;;;;;;;;5057839;28;20056;-65
2023/03/25 07:48:32;;;;;;;22.65;7.05;;;;;;;;;;5059270;28;20055;-63
2023/03/25 07:50:57;;;;;;;17.52;7.38;;;;;;;;;;5054600;28;20048;-64
2023/03/25 07:53:24;;;;;;;19.55;8.05;;;;;;;;;;5053054;28;20165;-64
2023/03/25 07:55:53;;;;;;;20.58;7.93;;;;;;;;;;5050706;28;20155;-64
2023/03/25 07:58:22;;;;;;;21.83;8.35;;;;;;;;;;5052880;28;20092;-63
2023/03/25 08:00:50;;;;;;;15.82;8.07;;;;;;;;;;5054179;28;20064;-64
2023/03/25 08:03:16;;;;;;;23.38;8.48;;;;;;;;;;5052845;28;20055;-62
2023/03/25 08:05:46;;;;;;;19.08;8.98;;;;;;;;;;5057462;28;20048;-67
2023/03/25 08:08:13;;;;;;;21.45;8.57;;;;;;;;;;5051399;28;20033;-64
2023/03/25 08:10:42;;;;;;;17.70;8.73;;;;;;;;;;5053450;28;20048;-63
2023/03/25 08:13:08;;;;;;;21.83;9.00;;;;;;;;;;5047027;28;20056;-63
2023/03/25 08:15:34;;;;;;;14.35;8.93;;;;;;;;;;5052225;28;20045;-63
2023/03/25 08:18:02;;;;;;;17.17;8.80;;;;;;;;;;5050566;28;20048;-62
2023/03/25 08:20:27;;;;;;;25.90;9.38;;;;;;;;;;5053997;28;20055;-64
2023/03/25 08:22:56;;;;;;;23.20;10.57;;;;;;;;;;5050859;28;20056;-63
2023/03/25 08:25:22;;;;;;;20.80;10.32;;;;;;;;;;5052535;28;20049;-64
2023/03/25 08:27:48;;;;;;;19.58;9.30;;;;;;;;;;5047382;28;20503;-66
2023/03/25 08:30:14;;;;;;;17.70;9.35;;;;;;;;;;5052880;28;20141;-68
2023/03/25 08:32:40;;;;;;;18.65;10.15;;;;;;;;;;5044422;28;20056;-65
2023/03/25 08:35:06;;;;;;;20.98;10.63;;;;;;;;;;5053824;28;20052;-66
2023/03/25 08:37:36;;;;;;;27.65;12.85;;;;;;;;;;5049976;28;20110;-64
2023/03/25 08:40:08;;;;;;;29.65;11.35;;;;;;;;;;5056019;28;20052;-65
2023/03/25 08:42:36;;;;;;;27.98;12.15;;;;;;;;;;5053993;28;20325;-65
2023/03/25 08:45:03;;;;;;;18.45;11.70;;;;;;;;;;5055755;28;20055;-64
2023/03/25 08:47:30;;;;;;;21.58;10.55;;;;;;;;;;5057675;28;20102;-65
2023/03/25 08:49:56;;;;;;;28.83;11.75;;;;;;;;;;5071309;28;20040;-64
2023/03/25 08:52:22;;;;;;;22.35;12.32;;;;;;;;;;5056477;28;20051;-66
2023/03/25 08:54:48;;;;;;;23.75;12.10;;;;;;;;;;5056577;28;20044;-64
2023/03/25 08:57:16;;;;;;;23.17;12.75;;;;;;;;;;5059243;28;20060;-65
2023/03/25 08:59:43;;;;;;;30.27;13.05;;;;;;;;;;5057231;28;20056;-65
2023/03/25 09:02:11;;;;;;;23.52;12.32;;;;;;;;;;5048549;28;21287;-64
2023/03/25 09:04:38;;;;;;;28.23;12.20;;;;;;;;;;5058799;28;20048;-64
2023/03/25 09:07:09;;;;;;;20.38;12.48;;;;;;;;;;5058253;28;20052;-64
2023/03/25 09:09:39;;;;;;;28.35;12.57;;;;;;;;;;5059173;28;20452;-64
2023/03/25 09:12:06;;;;;;;22.05;11.73;;;;;;;;;;5069980;28;20040;-63
2023/03/25 09:14:32;;;;;;;18.02;10.73;;;;;;;;;;5057461;28;21007;-64
2023/03/25 09:16:58;;;;;;;22.48;11.00;;;;;;;;;;5065111;28;20044;-67
2023/03/25 09:19:25;;;;;;;20.67;10.65;;;;;;;;;;5067403;28;20048;-63
2023/03/25 09:21:51;;;;;;;21.55;10.88;;;;;;;;;;5060263;28;20052;-62
2023/03/25 09:24:17;;;;;;;20.05;9.48;;;;;;;;;;5057342;28;20040;-64
2023/03/25 09:26:44;;;;;;;16.98;9.98;;;;;;;;;;5062458;28;20044;-63
2023/03/25 09:29:10;;;;;;;20.75;10.35;;;;;;;;;;5063741;28;20071;-68
2023/03/25 09:31:36;;;;;;;19.30;9.27;;;;;;;;;;5048606;28;20060;-66
2023/03/25 09:34:02;;;;;;;15.45;8.45;;;;;;;;;;5066602;28;20387;-65
2023/03/25 09:37:08;;;;;;;28.30;9.85;;;;;;;;;;5054300;28;20067;-65
2023/03/25 09:40:48;;;;;;;17.70;8.23;;;;;;;;;;5058359;28;20040;-64
2023/03/25 09:44:14;;;;;;;12.43;7.40;;;;;;;;;;5064229;28;20131;-66
2023/03/25 09:47:55;;;;;;;11.23;6.50;;;;;;;;;;5061902;28;20067;-65
2023/03/25 09:51:18;;;;;;;15.30;6.28;;;;;;;;;;5056576;28;20055;-67
2023/03/25 09:55:01;;;;;;;11.35;6.70;;;;;;;;;;5060418;28;20083;-66
2023/03/25 09:58:36;;;;;;;13.27;6.93;;;;;;;;;;5062531;28;20044;-63
2023/03/25 10:01:46;;;;;;;13.35;5.68;;;;;;;;;;5058767;28;20056;-65
2023/03/25 10:05:30;;;;;;;11.30;5.38;;;;;;;;;;5055169;28;20044;-65
2023/03/25 10:08:55;;;;;;;8.15;4.97;;;;;;;;;;5062443;28;20041;-63
2023/03/25 10:12:19;;;;;;;;;;;;;;;;;;5054800;28;20138;-64
2023/03/25 10:16:17;;;;;;;11.55;5.30;;;;;;;;;;5063269;28;20592;-70
2023/03/25 10:19:53;;;;;;;13.02;5.30;;;;;;;;;;5059013;28;20446;-66
2023/03/25 10:23:28;;;;;;;11.82;6.05;;;;;;;;;;5060902;28;20438;-64
2023/03/25 10:26:03;;;;;;;12.77;4.97;;;;;;;;;;5062160;28;20036;-64
2023/03/25 10:29:13;;;;;;;8.75;5.00;;;;;;;;;;5061041;28;20048;-63
2023/03/25 10:32:54;;;;;;;12.30;5.95;;;;;;;;;;5056475;28;20080;-62
2023/03/25 10:36:34;;;;;;;17.15;8.18;;;;;;;;;;5059481;28;20881;-61
2023/03/25 10:40:15;;;;;;;15.13;7.43;;;;;;;;;;5060135;28;20040;-62
2023/03/25 10:43:22;;;;;;;18.13;8.23;;;;;;;;;;5056643;28;20052;-62
2023/03/25 10:47:05;;;;;;;17.17;8.23;;;;;;;;;;5055643;28;20519;-62
2023/03/25 10:50:45;;;;;;;15.57;8.35;;;;;;;;;;5060828;28;20037;-62
2023/03/25 10:54:26;;;;;;;22.38;8.73;;;;;;;;;;5061815;28;20052;-61
2023/03/25 10:57:55;;;;;;;18.13;7.80;;;;;;;;;;5064275;28;20067;-62
2023/03/25 11:01:36;;;;;;;20.30;8.20;;;;;;;;;;5060692;28;20094;-63
2023/03/25 11:05:16;;;;;;;19.23;8.25;;;;;;;;;;5062008;28;20056;-63
2023/03/25 11:08:05;;;;;;;;;;;;;;;;;;5057292;28;20036;-65
2023/03/25 11:11:07;;;;;;;23.02;8.15;;;;;;;;;;5060376;28;19927;-62
2023/03/25 11:14:13;;;;;;;23.75;8.35;;;;;;;;;;5077117;28;20496;-63
2023/03/25 11:17:34;;;;;;;16.48;7.43;;;;;;;;;;5060901;28;20063;-62
2023/03/25 11:21:15;;;;;;;19.02;7.50;;;;;;;;;;5063926;28;20055;-63
2023/03/25 11:24:56;;;;;;;18.67;7.22;;;;;;;;;;5062651;28;20557;-61
2023/03/25 11:28:41;;;;;;;21.08;7.72;;;;;;;;;;5063157;28;20367;-61
2023/03/25 11:32:37;;;;;;;17.20;7.72;;;;;;;;;;5059244;28;20044;-64
2023/03/25 11:36:18;;;;;;;16.50;6.88;;;;;;;;;;5063841;28;20144;-62
2023/03/25 11:39:58;;;;;;;17.10;7.70;;;;;;;;;;5057500;28;20048;-61
2023/03/25 11:43:00;;;;;;;15.20;7.72;;;;;;;;;;5062157;28;20397;-62
2023/03/25 11:46:06;;;;;;;16.33;6.43;;;;;;;;;;5064657;28;20739;-63
2023/03/25 11:49:48;;;;;;;16.55;6.80;;;;;;;;;;5067571;28;20042;-64
2023/03/25 11:53:27;;;;;;;16.15;6.75;;;;;;;;;;5065051;28;20044;-62
2023/03/25 11:57:10;;;;;;;13.43;6.25;;;;;;;;;;5059997;28;20153;-62
2023/03/25 12:00:49;;;;;;;17.00;6.07;;;;;;;;;;5062543;28;20044;-61
2023/03/25 12:04:41;;;;;;;16.77;6.05;;;;;;;;;;5064246;28;20459;-62
2023/03/25 12:08:30;;;;;;;10.05;5.03;;;;;;;;;;5062906;28;20052;-65
2023/03/25 12:11:51;;;;;;;19.65;5.90;;;;;;;;;;5070452;28;20075;-63
2023/03/25 12:15:23;;;;;;;14.98;4.88;;;;;;;;;;5062978;28;20111;-63
2023/03/25 12:18:47;;;;;;;10.95;4.53;;;;;;;;;;5065068;28;20278;-62
2023/03/25 12:22:28;;;;;;;10.48;5.15;;;;;;;;;;5061512;28;20135;-64
2023/03/25 12:25:43;;;;;;;9.60;4.25;;;;;;;;;;5075707;28;20067;-62
2023/03/25 12:28:53;;;;;;;11.48;4.60;;;;;;;;;;5066255;28;20053;-64
2023/03/25 12:32:15;;;;;;;12.68;4.63;;;;;;;;;;5068047;28;20374;-63
2023/03/25 12:35:31;;;;;;;12.77;4.40;;;;;;;;;;5070065;28;20080;-63
2023/03/25 12:38:44;;;;;;;11.10;4.10;;;;;;;;;;5065685;28;20351;-63
2023/03/25 12:41:59;;;;;;;10.20;4.38;;;;;;;;;;5062950;28;20105;-61
2023/03/25 12:45:19;;;;;;;;;;;;;;;;;;5069768;28;20409;-62
2023/03/25 12:48:51;;;;;;;11.02;4.30;;;;;;;;;;5069402;28;20280;-64
2023/03/25 12:52:29;;;;;;;8.73;4.40;;;;;;;;;;5067654;28;20110;-61
2023/03/25 12:55:45;;;;;;;7.63;3.40;;;;;;;;;;5055190;28;20963;-64
2023/03/25 12:59:36;;;;;;;14.65;4.20;;;;;;;;;;5065256;28;20056;-63
2023/03/25 13:03:07;;;;;;;9.82;3.78;;;;;;;;;;5061575;28;20048;-62
2023/03/25 13:06:37;;;;;;;14.27;3.90;;;;;;;;;;5062916;28;20511;-64
2023/03/25 13:10:43;;;;;;;12.40;4.53;;;;;;;;;;5068657;28;20530;-63
2023/03/25 13:14:25;;;;;;;12.13;4.68;;;;;;;;;;5061282;28;20048;-65
2023/03/25 13:17:56;;;;;;;9.80;4.25;;;;;;;;;;5061646;28;20119;-65
2023/03/25 13:21:44;;;;;;;14.60;4.20;;;;;;;;;;5068488;28;20541;-68
2023/03/25 13:25:25;;;;;;;11.75;4.47;;;;;;;;;;5063264;28;20105;-63
2023/03/25 13:29:11;;;;;;;14.57;5.15;;;;;;;;;;5062151;28;20073;-62
2023/03/25 13:33:05;;;;;;;12.70;4.63;;;;;;;;;;5061340;28;20040;-64
2023/03/25 13:36:48;;;;;;;14.27;4.75;;;;;;;;;;5060175;28;20453;-64
2023/03/25 13:40:21;;;;;;;11.43;4.40;;;;;;;;;;5058224;28;20455;-64
2023/03/25 13:44:05;;;;;;;10.48;4.55;;;;;;;;;;5062056;28;20060;-62
2023/03/25 13:47:11;;;;;;;11.07;4.45;;;;;;;;;;5058099;28;20496;-62
2023/03/25 13:50:55;;;;;;;12.40;4.38;;;;;;;;;;5073997;28;20043;-64
2023/03/25 13:54:27;;;;;;;8.70;4.18;;;;;;;;;;5063010;28;20317;-65
2023/03/25 13:58:22;;;;;;;10.95;4.47;;;;;;;;;;5059568;28;20131;-65
2023/03/25 14:01:35;;;;;;;12.73;4.93;;;;;;;;;;5067575;28;20048;-64
2023/03/25 14:05:31;;;;;;;9.50;3.92;;;;;;;;;;5065891;28;20059;-65
2023/03/25 14:09:20;;;;;;;10.07;3.92;;;;;;;;;;5011784;28;20133;-65
2023/03/25 14:13:07;;;;;;;9.68;4.18;;;;;;;;;;5013978;28;20046;-65
2023/03/25 14:16:49;;;;;;;8.32;3.42;;;;;;;;;;5017721;28;20045;-65
2023/03/25 14:20:30;;;;;;;10.68;3.88;;;;;;;;;;5012838;28;20057;-65
2023/03/25 14:24:10;;;;;;;12.20;4.22;;;;;;;;;;5022461;28;20057;-64
2023/03/25 14:28:09;;;;;;;8.68;3.97;;;;;;;;;;5029385;28;20115;-65
2023/03/25 14:31:16;;;;;;;9.07;3.95;;;;;;;;;;5013654;28;20060;-66
2023/03/25 14:35:01;;;;;;;10.85;4.35;;;;;;;;;;5026436;28;20479;-64
2023/03/25 14:38:06;;;;;;;;;;;;;;;;;;5021747;28;20041;-63
2023/03/25 14:41:44;;;;;;;12.73;3.90;;;;;;;;;;5022927;28;19932;-66
2023/03/25 14:45:28;;;;;;;8.77;3.50;;;;;;;;;;5067698;28;20052;-64
2023/03/25 14:48:30;;;;;;;9.23;3.88;;;;;;;;;;5062595;28;20041;-62
2023/03/25 14:51:29;;;;;;;9.35;3.75;;;;;;;;;;5063698;28;20484;-63
2023/03/25 14:55:11;;;;;;;9.55;4.05;;;;;;;;;;5069406;28;20048;-65
2023/03/25 14:58:41;;;;;;;13.18;3.88;;;;;;;;;;5063982;28;20037;-63
2023/03/25 15:02:41;;;;;;;12.02;3.72;;;;;;;;;;5074831;28;20208;-64
2023/03/25 15:06:23;;;;;;;10.75;3.55;;;;;;;;;;5066103;28;20048;-64
2023/03/25 15:10:05;;;;;;;9.18;3.55;;;;;;;;;;5058387;28;20988;-64
2023/03/25 15:13:29;;;;;;;10.35;3.50;;;;;;;;;;5056637;28;20400;-62
2023/03/25 15:17:15;;;;;;;8.75;3.58;;;;;;;;;;5065446;28;20043;-64
2023/03/25 15:20:23;;;;;;;10.68;3.30;;;;;;;;;;5063681;28;20143;-63
2023/03/25 15:23:35;;;;;;;10.00;3.30;;;;;;;;;;5060294;28;20114;-63
2023/03/25 15:26:04;;;;;;;10.15;3.20;;;;;;;;;;5068230;28;20043;-63
2023/03/25 15:28:42;;;;;;;9.10;3.47;;;;;;;;;;5059309;28;20519;-64
2023/03/25 15:32:14;;;;;;;9.40;2.92;;;;;;;;;;5064943;28;20474;-62
2023/03/25 15:35:48;;;;;;;10.90;3.60;;;;;;;;;;5060566;28;20060;-62
2023/03/25 15:39:32;;;;;;;8.10;3.03;;;;;;;;;;5063111;28;20044;-63
2023/03/25 15:43:09;;;;;;;8.80;3.10;;;;;;;;;;5062236;28;20662;-61
2023/03/25 15:46:45;;;;;;;8.32;3.00;;;;;;;;;;5057027;28;20088;-64
2023/03/25 15:50:02;;;;;;;11.30;3.15;;;;;;;;;;5061401;28;20455;-62
2023/03/25 15:53:53;;;;;;;15.68;3.58;;;;;;;;;;5060746;28;20059;-63
2023/03/25 15:57:27;;;;;;;10.10;3.10;;;;;;;;;;5061164;28;20049;-62
2023/03/25 16:01:08;;;;;;;9.40;2.90;;;;;;;;;;5063335;28;20040;-64
2023/03/25 16:04:57;;;;;;;9.13;3.22;;;;;;;;;;5067636;28;20139;-63
2023/03/25 16:08:37;;;;;;;8.93;3.05;;;;;;;;;;5064164;28;20275;-63
2023/03/25 16:12:17;;;;;;;11.30;3.30;;;;;;;;;;5056451;28;20045;-63
2023/03/25 16:15:58;;;;;;;8.20;2.90;;;;;;;;;;5067421;28;20052;-64
2023/03/25 16:19:38;;;;;;;9.35;3.10;;;;;;;;;;5068099;28;20056;-65
2023/03/25 16:23:21;;;;;;;6.20;2.72;;;;;;;;;;5068379;28;20040;-62
2023/03/25 16:27:13;;;;;;;6.97;2.92;;;;;;;;;;5061038;28;20036;-68
2023/03/25 16:31:01;;;;;;;9.07;3.33;;;;;;;;;;5068187;28;20048;-62
2023/03/25 16:34:40;;;;;;;9.75;3.42;;;;;;;;;;5068205;28;20399;-63
2023/03/25 16:38:21;;;;;;;9.32;3.30;;;;;;;;;;5067175;28;20063;-66
2023/03/25 16:42:05;;;;;;;9.68;3.88;;;;;;;;;;5068623;28;20033;-66
2023/03/25 16:45:44;;;;;;;11.07;3.65;;;;;;;;;;5063947;28;20708;-65
2023/03/25 16:49:33;;;;;;;15.13;3.67;;;;;;;;;;5072914;28;20050;-65
2023/03/25 16:53:13;;;;;;;10.57;3.65;;;;;;;;;;5064025;28;20056;-63
2023/03/25 16:56:14;;;;;;;10.02;3.38;;;;;;;;;;5063493;28;20060;-65
2023/03/25 16:59:55;;;;;;;11.32;3.75;;;;;;;;;;5061944;28;20044;-64
2023/03/25 17:03:36;;;;;;;12.07;3.70;;;;;;;;;;5068120;28;20415;-66
2023/03/25 17:07:19;;;;;;;9.63;3.30;;;;;;;;;;5059048;28;20044;-65
2023/03/25 17:10:42;;;;;;;9.45;3.70;;;;;;;;;;5067072;28;20051;-66
2023/03/25 17:14:26;;;;;;;10.88;3.45;;;;;;;;;;5067978;28;20458;-64
2023/03/25 17:18:06;;;;;;;10.90;4.50;;;;;;;;;;5066627;28;20056;-64
2023/03/25 17:21:50;;;;;;;14.05;4.05;;;;;;;;;;5065555;28;20112;-67
2023/03/25 17:25:45;;;;;;;12.63;4.30;;;;;;;;;;5062568;28;20105;-65
2023/03/25 17:28:52;;;;;;;14.07;4.50;;;;;;;;;;5056632;28;20384;-66
2023/03/25 17:32:35;;;;;;;16.13;4.45;;;;;;;;;;5062004;28;20140;-70
2023/03/25 17:36:15;;;;;;;11.13;4.32;;;;;;;;;;5064695;28;20040;-63
2023/03/25 17:40:00;;;;;;;10.75;4.40;;;;;;;;;;5064245;28;20052;-61
2023/03/25 17:43:40;;;;;;;10.70;4.30;;;;;;;;;;5069953;28;20044;-61
2023/03/25 17:47:22;;;;;;;9.07;4.57;;;;;;;;;;5060034;28;20041;-61
2023/03/25 17:51:01;;;;;;;12.25;4.90;;;;;;;;;;5064698;28;20040;-62
2023/03/25 17:54:41;;;;;;;12.95;4.57;;;;;;;;;;5065974;28;20087;-61